sensor_id;sensor_type;location;lat;lon;timestamp;P1;durP1;ratioP1;P2;durP2;ratioP2
3843;SDS011;1937;51.444;6.484;2023-03-18T00:01:53;5.00;;;2.83;;
3843;SDS011;1937;51.444;6.484;2023-03-18T00:04:20;8.10;;;3.90;;
3843;SDS011;1937;51.444;6.484;2023-03-18T00:06:48;6.20;;;3.80;;
3843;SDS011;1937;51.444;6.484;2023-03-18T00:09:15;6.83;;;4.10;;
3843;SDS011;1937;51.444;6.484;2023-03-18T00:11:41;8.60;;;3.87;;
3843;SDS011;1937;51.444;6.484;2023-03-18T00:14:10;5.50;;;3.33;;
3843;SDS011;1937;51.444;6.484;2023-03-18T00:16:36;5.67;;;4.00;;
3843;SDS011;1937;51.444;6.484;2023-03-18T00:19:05;6.80;;;3.50;;
3843;SDS011;1937;51.444;6.484;2023-03-18T00:21:32;9.13;;;4.53;;
3843;SDS011;1937;51.444;6.484;2023-03-18T00:23:59;5.00;;;3.77;;
3843;SDS011;1937;51.444;6.484;2023-03-18T00:26:26;7.20;;;5.37;;
3843;SDS011;1937;51.444;6.484;2023-03-18T00:28:54;6.57;;;3.80;;
3843;SDS011;1937;51.444;6.484;2023-03-18T00:31:22;7.00;;;3.57;;
3843;SDS011;1937;51.444;6.484;2023-03-18T00:33:49;6.90;;;3.90;;
3843;SDS011;1937;51.444;6.484;2023-03-18T00:36:17;8.47;;;3.80;;
3843;SDS011;1937;51.444;6.484;2023-03-18T00:38:49;5.03;;;3.77;;
3843;SDS011;1937;51.444;6.484;2023-03-18T00:41:21;9.00;;;4.50;;
3843;SDS011;1937;51.444;6.484;2023-03-18T00:43:49;6.27;;;4.60;;
3843;SDS011;1937;51.444;6.484;2023-03-18T00:46:18;7.20;;;5.27;;
3843;SDS011;1937;51.444;6.484;2023-03-18T00:48:47;8.50;;;4.50;;
3843;SDS011;1937;51.444;6.484;2023-03-18T00:51:14;12.37;;;4.30;;
3843;SDS011;1937;51.444;6.484;2023-03-18T00:53:45;9.80;;;3.90;;
3843;SDS011;1937;51.444;6.484;2023-03-18T00:56:14;12.60;;;3.33;;
3843;SDS011;1937;51.444;6.484;2023-03-18T00:58:42;6.93;;;3.30;;
3843;SDS011;1937;51.444;6.484;2023-03-18T01:01:09;5.17;;;3.90;;
3843;SDS011;1937;51.444;6.484;2023-03-18T01:03:37;4.83;;;3.40;;
3843;SDS011;1937;51.444;6.484;2023-03-18T01:06:06;4.80;;;3.63;;
3843;SDS011;1937;51.444;6.484;2023-03-18T01:08:35;5.43;;;3.47;;
3843;SDS011;1937;51.444;6.484;2023-03-18T01:11:02;8.50;;;4.10;;
3843;SDS011;1937;51.444;6.484;2023-03-18T01:13:29;6.40;;;3.93;;
3843;SDS011;1937;51.444;6.484;2023-03-18T01:15:58;8.27;;;4.30;;
3843;SDS011;1937;51.444;6.484;2023-03-18T01:18:27;4.80;;;3.70;;
3843;SDS011;1937;51.444;6.484;2023-03-18T01:20:56;10.73;;;3.93;;
3843;SDS011;1937;51.444;6.484;2023-03-18T01:23:25;4.47;;;4.03;;
3843;SDS011;1937;51.444;6.484;2023-03-18T01:25:55;9.30;;;4.37;;
3843;SDS011;1937;51.444;6.484;2023-03-18T01:28:25;7.80;;;3.40;;
3843;SDS011;1937;51.444;6.484;2023-03-18T01:30:54;6.97;;;3.53;;
3843;SDS011;1937;51.444;6.484;2023-03-18T01:33:23;7.87;;;4.20;;
3843;SDS011;1937;51.444;6.484;2023-03-18T01:35:53;8.03;;;4.43;;
3843;SDS011;1937;51.444;6.484;2023-03-18T01:38:24;5.47;;;4.50;;
3843;SDS011;1937;51.444;6.484;2023-03-18T01:40:55;7.80;;;5.17;;
3843;SDS011;1937;51.444;6.484;2023-03-18T01:43:25;9.57;;;5.37;;
3843;SDS011;1937;51.444;6.484;2023-03-18T01:45:58;7.60;;;4.93;;
3843;SDS011;1937;51.444;6.484;2023-03-18T01:48:28;7.87;;;4.77;;
3843;SDS011;1937;51.444;6.484;2023-03-18T01:51:02;16.47;;;6.30;;
3843;SDS011;1937;51.444;6.484;2023-03-18T01:53:35;10.10;;;4.90;;
3843;SDS011;1937;51.444;6.484;2023-03-18T01:56:10;9.20;;;5.90;;
3843;SDS011;1937;51.444;6.484;2023-03-18T01:58:42;10.97;;;6.37;;
3843;SDS011;1937;51.444;6.484;2023-03-18T02:01:16;13.17;;;6.43;;
3843;SDS011;1937;51.444;6.484;2023-03-18T02:03:50;12.43;;;6.60;;
3843;SDS011;1937;51.444;6.484;2023-03-18T02:06:19;8.73;;;5.30;;
3843;SDS011;1937;51.444;6.484;2023-03-18T02:08:48;9.80;;;6.50;;
3843;SDS011;1937;51.444;6.484;2023-03-18T02:11:18;8.60;;;6.60;;
3843;SDS011;1937;51.444;6.484;2023-03-18T02:13:47;13.43;;;6.30;;
3843;SDS011;1937;51.444;6.484;2023-03-18T02:16:17;11.20;;;6.80;;
3843;SDS011;1937;51.444;6.484;2023-03-18T02:18:50;7.27;;;5.30;;
3843;SDS011;1937;51.444;6.484;2023-03-18T02:24:08;10.93;;;6.40;;
3843;SDS011;1937;51.444;6.484;2023-03-18T02:26:47;13.87;;;6.00;;
3843;SDS011;1937;51.444;6.484;2023-03-18T02:29:21;9.20;;;6.23;;
3843;SDS011;1937;51.444;6.484;2023-03-18T02:31:51;7.87;;;5.60;;
3843;SDS011;1937;51.444;6.484;2023-03-18T02:34:21;9.17;;;6.00;;
3843;SDS011;1937;51.444;6.484;2023-03-18T02:36:51;11.03;;;6.17;;
3843;SDS011;1937;51.444;6.484;2023-03-18T02:39:21;14.30;;;7.20;;
3843;SDS011;1937;51.444;6.484;2023-03-18T02:41:50;13.67;;;6.90;;
3843;SDS011;1937;51.444;6.484;2023-03-18T02:44:18;14.00;;;7.33;;
3843;SDS011;1937;51.444;6.484;2023-03-18T02:46:50;9.33;;;6.70;;
3843;SDS011;1937;51.444;6.484;2023-03-18T02:49:23;9.87;;;6.80;;
3843;SDS011;1937;51.444;6.484;2023-03-18T02:51:53;16.23;;;6.80;;
3843;SDS011;1937;51.444;6.484;2023-03-18T02:54:23;12.60;;;7.77;;
3843;SDS011;1937;51.444;6.484;2023-03-18T02:56:52;14.50;;;7.30;;
3843;SDS011;1937;51.444;6.484;2023-03-18T02:59:21;16.50;;;6.53;;
3843;SDS011;1937;51.444;6.484;2023-03-18T03:01:52;8.93;;;5.63;;
3843;SDS011;1937;51.444;6.484;2023-03-18T03:04:21;10.40;;;7.43;;
3843;SDS011;1937;51.444;6.484;2023-03-18T03:06:51;12.00;;;5.90;;
3843;SDS011;1937;51.444;6.484;2023-03-18T03:09:20;15.50;;;8.27;;
3843;SDS011;1937;51.444;6.484;2023-03-18T03:11:49;10.90;;;7.60;;
3843;SDS011;1937;51.444;6.484;2023-03-18T03:14:17;15.73;;;7.23;;
3843;SDS011;1937;51.444;6.484;2023-03-18T03:16:46;9.10;;;6.53;;
3843;SDS011;1937;51.444;6.484;2023-03-18T03:19:16;14.47;;;6.93;;
3843;SDS011;1937;51.444;6.484;2023-03-18T03:21:44;12.97;;;7.17;;
3843;SDS011;1937;51.444;6.484;2023-03-18T03:24:13;8.97;;;6.50;;
3843;SDS011;1937;51.444;6.484;2023-03-18T03:26:41;10.93;;;7.03;;
3843;SDS011;1937;51.444;6.484;2023-03-18T03:29:10;12.33;;;7.10;;
3843;SDS011;1937;51.444;6.484;2023-03-18T03:31:38;13.23;;;5.87;;
3843;SDS011;1937;51.444;6.484;2023-03-18T03:34:07;12.70;;;5.80;;
3843;SDS011;1937;51.444;6.484;2023-03-18T03:36:37;9.67;;;5.60;;
3843;SDS011;1937;51.444;6.484;2023-03-18T03:39:07;10.77;;;5.47;;
3843;SDS011;1937;51.444;6.484;2023-03-18T03:41:43;12.30;;;5.67;;
3843;SDS011;1937;51.444;6.484;2023-03-18T03:44:11;8.57;;;5.67;;
3843;SDS011;1937;51.444;6.484;2023-03-18T03:46:41;8.73;;;5.17;;
3843;SDS011;1937;51.444;6.484;2023-03-18T03:49:10;10.73;;;5.00;;
3843;SDS011;1937;51.444;6.484;2023-03-18T03:51:43;11.70;;;5.97;;
3843;SDS011;1937;51.444;6.484;2023-03-18T03:54:14;12.27;;;5.20;;
3843;SDS011;1937;51.444;6.484;2023-03-18T03:56:43;9.93;;;5.07;;
3843;SDS011;1937;51.444;6.484;2023-03-18T03:59:12;11.00;;;5.00;;
3843;SDS011;1937;51.444;6.484;2023-03-18T04:01:42;10.80;;;5.67;;
3843;SDS011;1937;51.444;6.484;2023-03-18T04:04:11;11.63;;;5.07;;
3843;SDS011;1937;51.444;6.484;2023-03-18T04:06:41;10.03;;;5.63;;
3843;SDS011;1937;51.444;6.484;2023-03-18T04:09:09;10.10;;;5.37;;
3843;SDS011;1937;51.444;6.484;2023-03-18T04:11:37;6.87;;;4.60;;
3843;SDS011;1937;51.444;6.484;2023-03-18T04:14:07;8.20;;;4.70;;
3843;SDS011;1937;51.444;6.484;2023-03-18T04:16:42;6.47;;;4.60;;
3843;SDS011;1937;51.444;6.484;2023-03-18T04:19:11;11.27;;;5.20;;
3843;SDS011;1937;51.444;6.484;2023-03-18T04:21:40;15.43;;;4.97;;
3843;SDS011;1937;51.444;6.484;2023-03-18T04:24:09;9.53;;;5.40;;
3843;SDS011;1937;51.444;6.484;2023-03-18T04:26:37;10.77;;;5.50;;
3843;SDS011;1937;51.444;6.484;2023-03-18T04:29:06;9.70;;;5.20;;
3843;SDS011;1937;51.444;6.484;2023-03-18T04:31:40;16.70;;;7.87;;
3843;SDS011;1937;51.444;6.484;2023-03-18T04:34:10;8.67;;;6.17;;
3843;SDS011;1937;51.444;6.484;2023-03-18T04:36:38;10.30;;;7.17;;
3843;SDS011;1937;51.444;6.484;2023-03-18T04:39:08;15.67;;;6.73;;
3843;SDS011;1937;51.444;6.484;2023-03-18T04:41:36;16.73;;;8.03;;
3843;SDS011;1937;51.444;6.484;2023-03-18T04:44:05;9.60;;;6.90;;
3843;SDS011;1937;51.444;6.484;2023-03-18T04:46:34;17.80;;;7.30;;
3843;SDS011;1937;51.444;6.484;2023-03-18T04:49:03;16.17;;;8.47;;
3843;SDS011;1937;51.444;6.484;2023-03-18T04:51:31;14.40;;;7.93;;
3843;SDS011;1937;51.444;6.484;2023-03-18T04:54:01;15.40;;;7.33;;
3843;SDS011;1937;51.444;6.484;2023-03-18T04:56:33;11.10;;;7.27;;
3843;SDS011;1937;51.444;6.484;2023-03-18T04:59:01;12.93;;;7.97;;
3843;SDS011;1937;51.444;6.484;2023-03-18T05:01:33;15.33;;;6.80;;
3843;SDS011;1937;51.444;6.484;2023-03-18T05:04:02;12.00;;;8.37;;
3843;SDS011;1937;51.444;6.484;2023-03-18T05:06:32;10.17;;;6.80;;
3843;SDS011;1937;51.444;6.484;2023-03-18T05:09:01;16.53;;;7.67;;
3843;SDS011;1937;51.444;6.484;2023-03-18T05:11:30;13.30;;;6.50;;
3843;SDS011;1937;51.444;6.484;2023-03-18T05:14:01;12.47;;;6.83;;
3843;SDS011;1937;51.444;6.484;2023-03-18T05:16:29;13.87;;;8.17;;
3843;SDS011;1937;51.444;6.484;2023-03-18T05:18:57;9.20;;;6.93;;
3843;SDS011;1937;51.444;6.484;2023-03-18T05:21:26;12.20;;;7.00;;
3843;SDS011;1937;51.444;6.484;2023-03-18T05:23:54;14.83;;;7.50;;
3843;SDS011;1937;51.444;6.484;2023-03-18T05:26:23;13.90;;;8.03;;
3843;SDS011;1937;51.444;6.484;2023-03-18T05:28:53;16.13;;;8.47;;
3843;SDS011;1937;51.444;6.484;2023-03-18T05:31:24;11.60;;;7.50;;
3843;SDS011;1937;51.444;6.484;2023-03-18T05:33:53;15.90;;;9.37;;
3843;SDS011;1937;51.444;6.484;2023-03-18T05:36:22;20.67;;;12.40;;
3843;SDS011;1937;51.444;6.484;2023-03-18T05:38:51;17.87;;;10.63;;
3843;SDS011;1937;51.444;6.484;2023-03-18T05:41:20;20.57;;;12.47;;
3843;SDS011;1937;51.444;6.484;2023-03-18T05:43:49;20.07;;;14.63;;
3843;SDS011;1937;51.444;6.484;2023-03-18T05:46:19;21.67;;;12.13;;
3843;SDS011;1937;51.444;6.484;2023-03-18T05:48:50;18.93;;;10.60;;
3843;SDS011;1937;51.444;6.484;2023-03-18T05:51:18;20.47;;;11.33;;
3843;SDS011;1937;51.444;6.484;2023-03-18T05:53:46;38.07;;;21.87;;
3843;SDS011;1937;51.444;6.484;2023-03-18T05:56:15;47.27;;;26.13;;
3843;SDS011;1937;51.444;6.484;2023-03-18T05:58:44;42.83;;;25.17;;
3843;SDS011;1937;51.444;6.484;2023-03-18T06:01:13;30.67;;;17.37;;
3843;SDS011;1937;51.444;6.484;2023-03-18T06:03:44;28.00;;;14.60;;
3843;SDS011;1937;51.444;6.484;2023-03-18T06:06:14;23.67;;;14.13;;
3843;SDS011;1937;51.444;6.484;2023-03-18T06:08:43;23.30;;;12.70;;
3843;SDS011;1937;51.444;6.484;2023-03-18T06:11:12;25.53;;;12.43;;
3843;SDS011;1937;51.444;6.484;2023-03-18T06:13:42;19.53;;;11.17;;
3843;SDS011;1937;51.444;6.484;2023-03-18T06:16:11;18.50;;;10.50;;
3843;SDS011;1937;51.444;6.484;2023-03-18T06:18:40;21.83;;;10.90;;
3843;SDS011;1937;51.444;6.484;2023-03-18T06:21:09;16.83;;;10.50;;
3843;SDS011;1937;51.444;6.484;2023-03-18T06:23:40;24.43;;;11.00;;
3843;SDS011;1937;51.444;6.484;2023-03-18T06:26:09;19.80;;;10.07;;
3843;SDS011;1937;51.444;6.484;2023-03-18T06:28:38;15.77;;;10.20;;
3843;SDS011;1937;51.444;6.484;2023-03-18T06:31:06;22.67;;;10.83;;
3843;SDS011;1937;51.444;6.484;2023-03-18T06:33:35;15.17;;;10.23;;
3843;SDS011;1937;51.444;6.484;2023-03-18T06:36:04;15.80;;;10.10;;
3843;SDS011;1937;51.444;6.484;2023-03-18T06:38:34;21.67;;;11.27;;
3843;SDS011;1937;51.444;6.484;2023-03-18T06:41:05;15.90;;;9.67;;
3843;SDS011;1937;51.444;6.484;2023-03-18T06:43:34;16.20;;;10.47;;
3843;SDS011;1937;51.444;6.484;2023-03-18T06:46:03;18.03;;;10.27;;
3843;SDS011;1937;51.444;6.484;2023-03-18T06:48:32;15.30;;;9.10;;
3843;SDS011;1937;51.444;6.484;2023-03-18T06:51:04;18.10;;;10.27;;
3843;SDS011;1937;51.444;6.484;2023-03-18T06:53:35;16.13;;;10.37;;
3843;SDS011;1937;51.444;6.484;2023-03-18T06:56:04;20.63;;;10.17;;
3843;SDS011;1937;51.444;6.484;2023-03-18T06:58:33;27.93;;;10.97;;
3843;SDS011;1937;51.444;6.484;2023-03-18T07:01:02;17.37;;;10.90;;
3843;SDS011;1937;51.444;6.484;2023-03-18T07:03:35;18.47;;;10.03;;
3843;SDS011;1937;51.444;6.484;2023-03-18T07:06:04;15.53;;;9.77;;
3843;SDS011;1937;51.444;6.484;2023-03-18T07:08:34;18.10;;;10.73;;
3843;SDS011;1937;51.444;6.484;2023-03-18T07:11:06;16.30;;;9.40;;
3843;SDS011;1937;51.444;6.484;2023-03-18T07:13:34;14.67;;;9.03;;
3843;SDS011;1937;51.444;6.484;2023-03-18T07:16:04;16.00;;;9.00;;
3843;SDS011;1937;51.444;6.484;2023-03-18T07:18:34;12.53;;;9.77;;
3843;SDS011;1937;51.444;6.484;2023-03-18T07:21:03;20.10;;;9.57;;
3843;SDS011;1937;51.444;6.484;2023-03-18T07:23:35;16.13;;;9.20;;
3843;SDS011;1937;51.444;6.484;2023-03-18T07:26:06;21.30;;;10.07;;
3843;SDS011;1937;51.444;6.484;2023-03-18T07:28:46;16.97;;;9.60;;
3843;SDS011;1937;51.444;6.484;2023-03-18T07:31:15;15.43;;;8.17;;
3843;SDS011;1937;51.444;6.484;2023-03-18T07:33:44;18.90;;;9.57;;
3843;SDS011;1937;51.444;6.484;2023-03-18T07:36:12;12.07;;;8.60;;
3843;SDS011;1937;51.444;6.484;2023-03-18T07:38:41;14.83;;;8.20;;
3843;SDS011;1937;51.444;6.484;2023-03-18T07:41:12;15.83;;;8.20;;
3843;SDS011;1937;51.444;6.484;2023-03-18T07:43:41;14.40;;;7.53;;
3843;SDS011;1937;51.444;6.484;2023-03-18T07:46:09;13.07;;;8.73;;
3843;SDS011;1937;51.444;6.484;2023-03-18T07:48:38;17.83;;;8.90;;
3843;SDS011;1937;51.444;6.484;2023-03-18T07:51:06;13.07;;;7.20;;
3843;SDS011;1937;51.444;6.484;2023-03-18T07:53:35;10.53;;;7.20;;
3843;SDS011;1937;51.444;6.484;2023-03-18T07:56:04;13.40;;;8.20;;
3843;SDS011;1937;51.444;6.484;2023-03-18T07:58:38;13.93;;;7.57;;
3843;SDS011;1937;51.444;6.484;2023-03-18T08:01:07;16.23;;;7.33;;
3843;SDS011;1937;51.444;6.484;2023-03-18T08:03:36;14.23;;;8.33;;
3843;SDS011;1937;51.444;6.484;2023-03-18T08:06:05;11.10;;;6.93;;
3843;SDS011;1937;51.444;6.484;2023-03-18T08:08:37;11.27;;;7.03;;
3843;SDS011;1937;51.444;6.484;2023-03-18T08:11:07;13.57;;;7.37;;
3843;SDS011;1937;51.444;6.484;2023-03-18T08:13:35;13.30;;;6.73;;
3843;SDS011;1937;51.444;6.484;2023-03-18T08:16:06;16.93;;;8.60;;
3843;SDS011;1937;51.444;6.484;2023-03-18T08:18:36;14.33;;;7.90;;
3843;SDS011;1937;51.444;6.484;2023-03-18T08:21:05;9.40;;;5.80;;
3843;SDS011;1937;51.444;6.484;2023-03-18T08:23:34;6.63;;;5.47;;
3843;SDS011;1937;51.444;6.484;2023-03-18T08:26:02;8.73;;;6.07;;
3843;SDS011;1937;51.444;6.484;2023-03-18T08:28:31;6.80;;;5.07;;
3843;SDS011;1937;51.444;6.484;2023-03-18T08:31:02;7.03;;;4.73;;
3843;SDS011;1937;51.444;6.484;2023-03-18T08:33:31;11.83;;;5.10;;
3843;SDS011;1937;51.444;6.484;2023-03-18T08:36:00;9.97;;;5.47;;
3843;SDS011;1937;51.444;6.484;2023-03-18T08:38:29;8.30;;;4.93;;
3843;SDS011;1937;51.444;6.484;2023-03-18T08:40:57;7.20;;;4.90;;
3843;SDS011;1937;51.444;6.484;2023-03-18T08:43:26;10.13;;;4.80;;
3843;SDS011;1937;51.444;6.484;2023-03-18T08:45:58;8.10;;;5.13;;
3843;SDS011;1937;51.444;6.484;2023-03-18T08:48:26;6.83;;;4.93;;
3843;SDS011;1937;51.444;6.484;2023-03-18T08:50:57;7.60;;;4.73;;
3843;SDS011;1937;51.444;6.484;2023-03-18T08:53:28;7.67;;;5.00;;
3843;SDS011;1937;51.444;6.484;2023-03-18T08:55:57;9.80;;;5.47;;
3843;SDS011;1937;51.444;6.484;2023-03-18T08:58:27;4.47;;;3.80;;
3843;SDS011;1937;51.444;6.484;2023-03-18T09:00:56;5.17;;;3.93;;
3843;SDS011;1937;51.444;6.484;2023-03-18T09:03:27;6.27;;;4.77;;
3843;SDS011;1937;51.444;6.484;2023-03-18T09:05:55;5.10;;;4.17;;
3843;SDS011;1937;51.444;6.484;2023-03-18T09:08:25;6.87;;;4.90;;
3843;SDS011;1937;51.444;6.484;2023-03-18T09:10:58;7.37;;;4.70;;
3843;SDS011;1937;51.444;6.484;2023-03-18T09:13:26;5.23;;;3.20;;
3843;SDS011;1937;51.444;6.484;2023-03-18T09:15:55;5.43;;;4.30;;
3843;SDS011;1937;51.444;6.484;2023-03-18T09:18:23;6.97;;;4.53;;
3843;SDS011;1937;51.444;6.484;2023-03-18T09:20:56;7.07;;;3.90;;
3843;SDS011;1937;51.444;6.484;2023-03-18T09:23:28;7.60;;;4.37;;
3843;SDS011;1937;51.444;6.484;2023-03-18T09:25:58;5.07;;;4.57;;
3843;SDS011;1937;51.444;6.484;2023-03-18T09:28:27;12.37;;;4.20;;
3843;SDS011;1937;51.444;6.484;2023-03-18T09:30:56;7.03;;;4.03;;
3843;SDS011;1937;51.444;6.484;2023-03-18T09:33:26;9.47;;;4.00;;
3843;SDS011;1937;51.444;6.484;2023-03-18T09:35:54;4.00;;;3.60;;
3843;SDS011;1937;51.444;6.484;2023-03-18T09:38:22;6.37;;;3.60;;
3843;SDS011;1937;51.444;6.484;2023-03-18T09:40:57;5.30;;;4.10;;
3843;SDS011;1937;51.444;6.484;2023-03-18T09:43:35;4.70;;;3.70;;
3843;SDS011;1937;51.444;6.484;2023-03-18T09:46:17;4.00;;;3.33;;
3843;SDS011;1937;51.444;6.484;2023-03-18T09:52:01;6.13;;;3.53;;
3843;SDS011;1937;51.444;6.484;2023-03-18T09:55:28;5.73;;;3.73;;
3843;SDS011;1937;51.444;6.484;2023-03-18T10:01:04;8.10;;;4.60;;
3843;SDS011;1937;51.444;6.484;2023-03-18T10:03:36;5.10;;;3.93;;
3843;SDS011;1937;51.444;6.484;2023-03-18T10:06:11;8.67;;;3.30;;
3843;SDS011;1937;51.444;6.484;2023-03-18T10:08:45;8.63;;;3.60;;
3843;SDS011;1937;51.444;6.484;2023-03-18T10:11:22;6.20;;;3.83;;
3843;SDS011;1937;51.444;6.484;2023-03-18T10:13:59;6.47;;;3.00;;
3843;SDS011;1937;51.444;6.484;2023-03-18T10:16:41;3.80;;;3.40;;
3843;SDS011;1937;51.444;6.484;2023-03-18T10:19:19;4.60;;;3.00;;
3843;SDS011;1937;51.444;6.484;2023-03-18T10:21:49;5.43;;;3.00;;
3843;SDS011;1937;51.444;6.484;2023-03-18T10:24:26;3.67;;;3.00;;
3843;SDS011;1937;51.444;6.484;2023-03-18T10:27:06;3.40;;;2.40;;
3843;SDS011;1937;51.444;6.484;2023-03-18T10:29:43;3.43;;;2.70;;
3843;SDS011;1937;51.444;6.484;2023-03-18T10:32:25;7.33;;;3.20;;
3843;SDS011;1937;51.444;6.484;2023-03-18T10:35:03;5.10;;;3.70;;
3843;SDS011;1937;51.444;6.484;2023-03-18T10:37:48;4.70;;;2.90;;
3843;SDS011;1937;51.444;6.484;2023-03-18T10:40:21;4.00;;;2.77;;
3843;SDS011;1937;51.444;6.484;2023-03-18T10:42:52;4.47;;;2.70;;
3843;SDS011;1937;51.444;6.484;2023-03-18T10:45:23;6.00;;;2.70;;
3843;SDS011;1937;51.444;6.484;2023-03-18T10:47:59;5.33;;;2.93;;
3843;SDS011;1937;51.444;6.484;2023-03-18T10:50:35;4.77;;;3.20;;
3843;SDS011;1937;51.444;6.484;2023-03-18T10:53:10;3.13;;;2.40;;
3843;SDS011;1937;51.444;6.484;2023-03-18T10:55:49;3.47;;;2.33;;
3843;SDS011;1937;51.444;6.484;2023-03-18T10:58:25;2.57;;;2.10;;
3843;SDS011;1937;51.444;6.484;2023-03-18T11:00:54;2.43;;;1.87;;
3843;SDS011;1937;51.444;6.484;2023-03-18T11:03:25;3.30;;;3.00;;
3843;SDS011;1937;51.444;6.484;2023-03-18T11:05:55;2.77;;;2.30;;
3843;SDS011;1937;51.444;6.484;2023-03-18T11:08:27;3.20;;;2.63;;
3843;SDS011;1937;51.444;6.484;2023-03-18T11:11:01;3.53;;;2.13;;
3843;SDS011;1937;51.444;6.484;2023-03-18T11:13:45;3.13;;;2.10;;
3843;SDS011;1937;51.444;6.484;2023-03-18T11:16:19;3.00;;;2.50;;
3843;SDS011;1937;51.444;6.484;2023-03-18T11:18:51;3.03;;;2.20;;
3843;SDS011;1937;51.444;6.484;2023-03-18T11:21:20;3.23;;;2.20;;
3843;SDS011;1937;51.444;6.484;2023-03-18T11:23:51;2.47;;;2.10;;
3843;SDS011;1937;51.444;6.484;2023-03-18T11:26:43;2.20;;;2.00;;
3843;SDS011;1937;51.444;6.484;2023-03-18T11:29:15;3.00;;;2.47;;
3843;SDS011;1937;51.444;6.484;2023-03-18T11:31:48;3.93;;;2.60;;
3843;SDS011;1937;51.444;6.484;2023-03-18T11:34:20;2.13;;;1.93;;
3843;SDS011;1937;51.444;6.484;2023-03-18T11:36:52;3.10;;;2.10;;
3843;SDS011;1937;51.444;6.484;2023-03-18T11:39:26;2.57;;;2.17;;
3843;SDS011;1937;51.444;6.484;2023-03-18T11:41:56;2.57;;;2.37;;
3843;SDS011;1937;51.444;6.484;2023-03-18T11:44:29;2.23;;;2.03;;
3843;SDS011;1937;51.444;6.484;2023-03-18T11:47:01;5.70;;;2.10;;
3843;SDS011;1937;51.444;6.484;2023-03-18T11:49:37;3.67;;;2.43;;
3843;SDS011;1937;51.444;6.484;2023-03-18T11:55:02;4.03;;;2.10;;
3843;SDS011;1937;51.444;6.484;2023-03-18T11:57:40;2.60;;;1.93;;
3843;SDS011;1937;51.444;6.484;2023-03-18T12:00:23;3.27;;;1.80;;
3843;SDS011;1937;51.444;6.484;2023-03-18T12:03:02;5.50;;;2.40;;
3843;SDS011;1937;51.444;6.484;2023-03-18T12:05:58;2.87;;;2.03;;
3843;SDS011;1937;51.444;6.484;2023-03-18T12:08:45;2.73;;;2.03;;
3843;SDS011;1937;51.444;6.484;2023-03-18T12:11:26;4.80;;;2.13;;
3843;SDS011;1937;51.444;6.484;2023-03-18T12:14:06;2.30;;;2.10;;
3843;SDS011;1937;51.444;6.484;2023-03-18T12:16:46;2.43;;;2.03;;
3843;SDS011;1937;51.444;6.484;2023-03-18T12:25:25;4.90;;;2.80;;
3843;SDS011;1937;51.444;6.484;2023-03-18T12:28:05;3.60;;;2.40;;
3843;SDS011;1937;51.444;6.484;2023-03-18T12:30:43;4.17;;;2.60;;
3843;SDS011;1937;51.444;6.484;2023-03-18T12:33:22;5.40;;;2.37;;
3843;SDS011;1937;51.444;6.484;2023-03-18T12:36:01;2.50;;;2.23;;
3843;SDS011;1937;51.444;6.484;2023-03-18T12:38:47;2.87;;;2.53;;
3843;SDS011;1937;51.444;6.484;2023-03-18T12:41:23;4.20;;;2.70;;
3843;SDS011;1937;51.444;6.484;2023-03-18T12:44:00;5.50;;;2.73;;
3843;SDS011;1937;51.444;6.484;2023-03-18T12:46:35;5.50;;;2.50;;
3843;SDS011;1937;51.444;6.484;2023-03-18T12:49:11;2.47;;;2.27;;
3843;SDS011;1937;51.444;6.484;2023-03-18T12:51:47;2.90;;;2.60;;
3843;SDS011;1937;51.444;6.484;2023-03-18T12:54:31;2.20;;;1.83;;
3843;SDS011;1937;51.444;6.484;2023-03-18T12:57:11;2.90;;;2.00;;
3843;SDS011;1937;51.444;6.484;2023-03-18T12:59:49;2.73;;;1.80;;
3843;SDS011;1937;51.444;6.484;2023-03-18T13:02:32;3.80;;;2.17;;
3843;SDS011;1937;51.444;6.484;2023-03-18T13:05:11;3.50;;;2.00;;
3843;SDS011;1937;51.444;6.484;2023-03-18T13:07:45;4.90;;;2.13;;
3843;SDS011;1937;51.444;6.484;2023-03-18T13:10:18;2.60;;;1.97;;
3843;SDS011;1937;51.444;6.484;2023-03-18T13:12:51;1.97;;;1.87;;
3843;SDS011;1937;51.444;6.484;2023-03-18T13:15:26;4.80;;;2.20;;
3843;SDS011;1937;51.444;6.484;2023-03-18T13:17:59;4.63;;;2.13;;
3843;SDS011;1937;51.444;6.484;2023-03-18T13:20:38;2.00;;;1.63;;
3843;SDS011;1937;51.444;6.484;2023-03-18T13:23:14;3.40;;;1.57;;
3843;SDS011;1937;51.444;6.484;2023-03-18T13:25:48;2.37;;;1.80;;
3843;SDS011;1937;51.444;6.484;2023-03-18T13:28:35;5.13;;;1.70;;
3843;SDS011;1937;51.444;6.484;2023-03-18T13:31:16;3.73;;;1.83;;
3843;SDS011;1937;51.444;6.484;2023-03-18T13:37:11;2.70;;;1.30;;
3843;SDS011;1937;51.444;6.484;2023-03-18T13:40:03;2.70;;;1.10;;
3843;SDS011;1937;51.444;6.484;2023-03-18T13:42:49;2.00;;;1.07;;
3843;SDS011;1937;51.444;6.484;2023-03-18T13:45:44;1.37;;;1.20;;
3843;SDS011;1937;51.444;6.484;2023-03-18T13:48:20;1.53;;;1.33;;
3843;SDS011;1937;51.444;6.484;2023-03-18T13:50:58;1.70;;;1.40;;
3843;SDS011;1937;51.444;6.484;2023-03-18T13:53:44;1.57;;;1.23;;
3843;SDS011;1937;51.444;6.484;2023-03-18T13:56:26;1.90;;;1.40;;
3843;SDS011;1937;51.444;6.484;2023-03-18T14:02:32;3.10;;;1.80;;
3843;SDS011;1937;51.444;6.484;2023-03-18T14:08:22;4.20;;;1.63;;
3843;SDS011;1937;51.444;6.484;2023-03-18T14:15:22;3.43;;;1.97;;
3843;SDS011;1937;51.444;6.484;2023-03-18T14:18:24;1.60;;;1.50;;
3843;SDS011;1937;51.444;6.484;2023-03-18T14:21:21;4.23;;;1.97;;
3843;SDS011;1937;51.444;6.484;2023-03-18T14:24:21;4.83;;;2.00;;
3843;SDS011;1937;51.444;6.484;2023-03-18T14:27:27;4.90;;;1.90;;
3843;SDS011;1937;51.444;6.484;2023-03-18T14:33:34;2.40;;;1.70;;
3843;SDS011;1937;51.444;6.484;2023-03-18T14:36:15;4.70;;;1.60;;
3843;SDS011;1937;51.444;6.484;2023-03-18T14:38:58;3.40;;;1.50;;
3843;SDS011;1937;51.444;6.484;2023-03-18T14:41:29;2.70;;;2.10;;
3843;SDS011;1937;51.444;6.484;2023-03-18T14:44:06;2.33;;;1.30;;
3843;SDS011;1937;51.444;6.484;2023-03-18T14:46:50;5.70;;;1.67;;
3843;SDS011;1937;51.444;6.484;2023-03-18T14:49:33;1.60;;;1.47;;
3843;SDS011;1937;51.444;6.484;2023-03-18T14:52:11;2.50;;;1.63;;
3843;SDS011;1937;51.444;6.484;2023-03-18T14:54:56;2.50;;;2.10;;
3843;SDS011;1937;51.444;6.484;2023-03-18T14:57:27;3.90;;;1.83;;
3843;SDS011;1937;51.444;6.484;2023-03-18T14:59:59;3.43;;;1.60;;
3843;SDS011;1937;51.444;6.484;2023-03-18T15:02:36;2.43;;;1.60;;
3843;SDS011;1937;51.444;6.484;2023-03-18T15:05:07;2.90;;;2.17;;
3843;SDS011;1937;51.444;6.484;2023-03-18T15:07:40;1.50;;;1.40;;
3843;SDS011;1937;51.444;6.484;2023-03-18T15:10:17;3.17;;;1.90;;
3843;SDS011;1937;51.444;6.484;2023-03-18T15:12:55;3.30;;;2.10;;
3843;SDS011;1937;51.444;6.484;2023-03-18T15:15:28;2.50;;;1.97;;
3843;SDS011;1937;51.444;6.484;2023-03-18T15:17:59;4.00;;;2.40;;
3843;SDS011;1937;51.444;6.484;2023-03-18T15:20:28;2.87;;;2.00;;
3843;SDS011;1937;51.444;6.484;2023-03-18T15:23:01;2.60;;;1.70;;
3843;SDS011;1937;51.444;6.484;2023-03-18T15:25:33;2.90;;;2.20;;
3843;SDS011;1937;51.444;6.484;2023-03-18T15:28:03;3.27;;;2.40;;
3843;SDS011;1937;51.444;6.484;2023-03-18T15:30:33;2.57;;;1.90;;
3843;SDS011;1937;51.444;6.484;2023-03-18T15:33:03;3.33;;;2.17;;
3843;SDS011;1937;51.444;6.484;2023-03-18T15:35:43;4.80;;;2.47;;
3843;SDS011;1937;51.444;6.484;2023-03-18T15:38:26;4.27;;;2.33;;
3843;SDS011;1937;51.444;6.484;2023-03-18T15:41:07;9.33;;;2.70;;
3843;SDS011;1937;51.444;6.484;2023-03-18T15:43:46;5.93;;;2.40;;
3843;SDS011;1937;51.444;6.484;2023-03-18T15:46:24;7.37;;;2.50;;
3843;SDS011;1937;51.444;6.484;2023-03-18T15:49:02;2.80;;;1.80;;
3843;SDS011;1937;51.444;6.484;2023-03-18T15:55:31;3.13;;;2.30;;
3843;SDS011;1937;51.444;6.484;2023-03-18T15:58:03;2.90;;;2.10;;
3843;SDS011;1937;51.444;6.484;2023-03-18T16:00:43;2.97;;;2.17;;
3843;SDS011;1937;51.444;6.484;2023-03-18T16:03:13;4.40;;;2.60;;
3843;SDS011;1937;51.444;6.484;2023-03-18T16:05:47;4.83;;;2.80;;
3843;SDS011;1937;51.444;6.484;2023-03-18T16:08:20;12.30;;;3.00;;
3843;SDS011;1937;51.444;6.484;2023-03-18T16:10:55;3.70;;;1.93;;
3843;SDS011;1937;51.444;6.484;2023-03-18T16:13:31;2.43;;;2.10;;
3843;SDS011;1937;51.444;6.484;2023-03-18T16:16:09;3.47;;;2.33;;
3843;SDS011;1937;51.444;6.484;2023-03-18T16:18:44;5.17;;;2.13;;
3843;SDS011;1937;51.444;6.484;2023-03-18T16:21:14;2.73;;;2.17;;
3843;SDS011;1937;51.444;6.484;2023-03-18T16:23:42;5.10;;;2.50;;